createdAt,value
2018-10-02T00:01:53.012Z,97451.00
2018-10-02T00:04:23.503Z,97448.00
2018-10-02T00:06:54.099Z,97447.00
2018-10-02T00:09:24.571Z,97450.00
2018-10-02T00:13:02.727Z,97448.00
2018-10-02T00:15:32.974Z,97452.00
2018-10-02T00:18:03.756Z,97454.00
2018-10-02T00:20:34.079Z,97452.00
2018-10-02T00:23:04.382Z,97449.00
2018-10-02T00:25:34.433Z,97452.00
2018-10-02T00:28:04.378Z,97460.00
2018-10-02T00:30:34.335Z,97466.00
2018-10-02T00:33:04.273Z,97471.00
2018-10-02T00:35:34.197Z,97469.00
2018-10-02T00:38:04.084Z,97470.00
2018-10-02T00:40:34.074Z,97469.00
2018-10-02T00:43:04.397Z,97479.00
2018-10-02T00:45:34.830Z,97477.00
2018-10-02T00:48:04.818Z,97477.00
2018-10-02T00:50:34.696Z,97487.00
2018-10-02T00:53:11.286Z,97493.00
2018-10-02T00:55:41.198Z,97486.00
2018-10-02T00:58:11.117Z,97483.00
2018-10-02T01:00:41.146Z,97485.00
2018-10-02T01:03:11.102Z,97488.00
2018-10-02T01:05:41.525Z,97481.00
2018-10-02T01:08:11.912Z,97490.00
2018-10-02T01:10:42.284Z,97489.00
2018-10-02T01:13:12.730Z,97488.00
2018-10-02T01:15:42.925Z,97496.00
2018-10-02T01:18:13.267Z,97494.00
2018-10-02T01:20:43.825Z,97491.00
2018-10-02T01:23:14.070Z,97492.00
2018-10-02T01:25:44.357Z,97491.00
2018-10-02T01:28:14.675Z,97489.00
2018-10-02T01:30:45.012Z,97493.00
2018-10-02T01:33:15.415Z,97495.00
2018-10-02T01:35:45.834Z,97490.00
2018-10-02T01:38:16.150Z,97489.00
2018-10-02T01:40:47.210Z,97480.00
2018-10-02T01:43:17.672Z,97479.00
2018-10-02T01:45:48.058Z,97480.00
2018-10-02T01:48:18.588Z,97482.00
2018-10-02T01:50:48.941Z,97486.00
2018-10-02T01:53:19.262Z,97484.00
2018-10-02T01:55:49.703Z,97488.00
2018-10-02T01:58:19.909Z,97488.00
2018-10-02T02:00:50.371Z,97490.00
2018-10-02T02:03:20.629Z,97491.00
2018-10-02T02:05:51.051Z,97494.00
2018-10-02T02:08:21.251Z,97503.00
2018-10-02T02:10:51.528Z,97500.00
2018-10-02T02:13:21.857Z,97501.00
2018-10-02T02:15:52.318Z,97501.00
2018-10-02T02:18:22.641Z,97494.00
2018-10-02T02:20:52.826Z,97502.00
2018-10-02T02:23:23.074Z,97499.00
2018-10-02T02:25:53.432Z,97499.00
2018-10-02T02:28:23.876Z,97498.00
2018-10-02T02:30:54.377Z,97501.00
2018-10-02T02:33:24.561Z,97503.00
2018-10-02T02:35:54.941Z,97508.00
2018-10-02T02:38:25.423Z,97513.00
2018-10-02T02:40:55.380Z,97518.00
2018-10-02T02:43:25.279Z,97513.00
2018-10-02T02:45:55.198Z,97511.00
2018-10-02T02:48:30.527Z,97501.00
2018-10-02T02:51:05.995Z,97497.00
2018-10-02T02:53:36.305Z,97480.00
2018-10-02T02:56:06.818Z,97500.00
2018-10-02T02:58:37.242Z,97492.00
2018-10-02T03:01:07.639Z,97497.00
2018-10-02T03:03:38.048Z,97504.00
2018-10-02T03:06:08.386Z,97503.00
2018-10-02T03:08:38.832Z,97508.00
2018-10-02T03:11:09.255Z,97511.00
2018-10-02T03:13:39.470Z,97511.00
2018-10-02T03:16:10.121Z,97517.00
2018-10-02T03:18:40.461Z,97524.00
2018-10-02T03:21:10.736Z,97527.00
2018-10-02T03:23:41.199Z,97528.00
2018-10-02T03:26:11.511Z,97531.00
2018-10-02T03:28:41.788Z,97535.00
2018-10-02T03:31:12.178Z,97544.00
2018-10-02T03:33:42.571Z,97539.00
2018-10-02T03:36:12.965Z,97545.00
2018-10-02T03:38:43.407Z,97551.00
2018-10-02T03:41:13.779Z,97548.00
2018-10-02T03:43:44.207Z,97548.00
2018-10-02T03:46:14.467Z,97551.00
2018-10-02T03:48:44.805Z,97553.00
2018-10-02T03:51:15.343Z,97556.00
2018-10-02T03:53:45.681Z,97556.00
2018-10-02T03:56:15.858Z,97560.00
2018-10-02T03:58:46.185Z,97563.00
2018-10-02T04:01:16.546Z,97555.00
2018-10-02T04:03:46.950Z,97561.00
2018-10-02T04:06:17.379Z,97567.00
2018-10-02T04:08:47.679Z,97560.00
2018-10-02T04:11:17.964Z,97566.00
2018-10-02T04:13:48.166Z,97562.00
2018-10-02T04:16:18.553Z,97569.00
2018-10-02T04:18:49.076Z,97571.00
2018-10-02T04:21:26.828Z,97578.00
2018-10-02T04:23:57.262Z,97578.00
2018-10-02T04:26:27.742Z,97576.00
2018-10-02T04:28:58.234Z,97575.00
2018-10-02T04:31:28.903Z,97581.00
2018-10-02T04:33:59.141Z,97582.00
2018-10-02T04:36:29.539Z,97582.00
2018-10-02T04:38:59.900Z,97586.00
2018-10-02T04:41:30.339Z,97584.00
2018-10-02T04:44:00.570Z,97589.00
2018-10-02T04:46:30.995Z,97591.00
2018-10-02T04:49:01.369Z,97589.00
2018-10-02T04:51:31.623Z,97592.00
2018-10-02T04:54:01.879Z,97598.00
2018-10-02T04:56:32.207Z,97596.00
2018-10-02T04:59:02.457Z,97602.00
2018-10-02T05:01:32.840Z,97602.00
2018-10-02T05:04:03.349Z,97612.00
2018-10-02T05:06:33.819Z,97616.00
2018-10-02T05:09:04.221Z,97616.00
2018-10-02T05:11:34.545Z,97616.00
2018-10-02T05:14:04.845Z,97620.00
2018-10-02T05:16:35.123Z,97617.00
2018-10-02T05:19:05.296Z,97617.00
2018-10-02T05:21:35.543Z,97624.00
2018-10-02T05:24:06.058Z,97623.00
2018-10-02T05:26:36.291Z,97622.00
2018-10-02T05:29:06.796Z,97626.00
2018-10-02T05:31:37.223Z,97635.00
2018-10-02T05:34:07.503Z,97637.00
2018-10-02T05:36:38.160Z,97641.00
2018-10-02T05:39:09.704Z,97650.00
2018-10-02T05:41:39.982Z,97655.00
2018-10-02T05:44:10.595Z,97657.00
2018-10-02T05:46:40.953Z,97664.00
2018-10-02T05:49:11.397Z,97673.00
2018-10-02T05:51:41.610Z,97677.00
2018-10-02T05:54:12.058Z,97681.00
2018-10-02T05:56:42.354Z,97684.00
2018-10-02T05:59:13.008Z,97694.00
2018-10-02T06:01:43.485Z,97701.00
2018-10-02T06:04:14.005Z,97698.00
2018-10-02T06:06:44.302Z,97701.00
2018-10-02T06:09:14.753Z,97708.00
2018-10-02T06:11:45.819Z,97708.00
2018-10-02T06:14:16.198Z,97717.00
2018-10-02T06:16:46.809Z,97715.00
2018-10-02T06:19:17.236Z,97722.00
2018-10-02T06:21:47.790Z,97734.00
2018-10-02T06:24:17.966Z,97736.00
2018-10-02T06:26:48.326Z,97733.00
2018-10-02T06:29:18.636Z,97744.00
2018-10-02T06:31:48.908Z,97744.00
2018-10-02T06:34:19.444Z,97750.00
2018-10-02T06:36:49.862Z,97755.00
2018-10-02T06:39:20.365Z,97763.00
2018-10-02T06:41:50.667Z,97760.00
2018-10-02T06:44:20.996Z,97766.00
2018-10-02T06:46:51.351Z,97772.00
2018-10-02T06:49:21.568Z,97774.00
2018-10-02T06:51:51.871Z,97771.00
2018-10-02T06:54:22.443Z,97771.00
2018-10-02T06:56:53.043Z,97782.00
2018-10-02T06:59:23.446Z,97782.00
2018-10-02T07:01:53.680Z,97783.00
2018-10-02T07:04:24.000Z,97779.00
2018-10-02T07:06:54.357Z,97782.00
2018-10-02T07:09:24.863Z,97787.00
2018-10-02T07:11:55.108Z,97788.00
2018-10-02T07:14:25.568Z,97794.00
2018-10-02T07:16:56.027Z,97799.00
2018-10-02T07:19:26.454Z,97802.00
2018-10-02T07:21:56.676Z,97801.00
2018-10-02T07:24:27.032Z,97809.00
2018-10-02T07:26:57.653Z,97810.00
2018-10-02T07:29:28.275Z,97812.00
2018-10-02T07:31:58.684Z,97821.00
2018-10-02T07:34:29.145Z,97825.00
2018-10-02T07:36:59.469Z,97828.00
2018-10-02T07:39:29.748Z,97832.00
2018-10-02T07:42:00.222Z,97837.00
2018-10-02T07:44:30.715Z,97836.00
2018-10-02T07:47:00.924Z,97824.00
2018-10-02T07:49:31.303Z,97827.00
2018-10-02T07:52:01.818Z,97831.00
2018-10-02T07:54:32.098Z,97834.00
2018-10-02T07:57:02.445Z,97835.00
2018-10-02T07:59:32.706Z,97836.00
2018-10-02T08:02:03.071Z,97839.00
2018-10-02T08:04:33.557Z,97843.00
2018-10-02T08:07:03.960Z,97848.00
2018-10-02T08:09:34.290Z,97842.00
2018-10-02T08:12:04.700Z,97840.00
2018-10-02T08:14:35.078Z,97848.00
2018-10-02T08:17:05.442Z,97851.00
2018-10-02T08:19:35.695Z,97854.00
2018-10-02T08:22:06.034Z,97853.00
2018-10-02T08:24:36.387Z,97857.00
2018-10-02T08:27:06.922Z,97855.00
2018-10-02T08:29:37.391Z,97856.00
2018-10-02T08:32:07.567Z,97857.00
2018-10-02T08:34:37.958Z,97854.00
2018-10-02T08:37:08.450Z,97847.00
2018-10-02T08:39:38.912Z,97846.00
2018-10-02T08:42:09.212Z,97843.00
2018-10-02T08:44:39.630Z,97849.00
2018-10-02T08:47:09.952Z,97854.00
2018-10-02T08:49:40.174Z,97844.00
2018-10-02T08:52:10.818Z,97844.00
2018-10-02T08:54:41.222Z,97844.00
2018-10-02T08:57:11.659Z,97853.00
2018-10-02T08:59:41.870Z,97850.00
2018-10-02T09:02:12.270Z,97855.00
2018-10-02T09:04:42.602Z,97859.00
2018-10-02T09:07:13.062Z,97848.00
2018-10-02T09:09:43.419Z,97842.00
2018-10-02T09:12:13.702Z,97849.00
2018-10-02T09:14:44.243Z,97853.00
2018-10-02T09:17:14.694Z,97851.00
2018-10-02T09:19:45.143Z,97851.00
2018-10-02T09:22:15.362Z,97852.00
2018-10-02T09:24:45.947Z,97855.00
2018-10-02T09:27:16.452Z,97851.00
2018-10-02T09:37:02.753Z,97855.00
2018-10-02T09:39:37.922Z,97848.00
2018-10-02T09:42:13.599Z,97851.00
2018-10-02T09:44:43.953Z,97854.00
2018-10-02T09:47:14.425Z,97847.00
2018-10-02T09:49:44.818Z,97843.00
2018-10-02T09:52:16.060Z,97841.00
2018-10-02T09:54:46.499Z,97833.00
2018-10-02T09:57:16.949Z,97832.00
2018-10-02T09:59:47.636Z,97832.00
2018-10-02T10:02:22.942Z,97835.00
2018-10-02T10:04:53.520Z,97846.00
2018-10-02T10:07:24.174Z,97835.00
2018-10-02T10:09:54.435Z,97831.00
2018-10-02T10:12:24.936Z,97837.00
2018-10-02T10:14:55.430Z,97839.00
2018-10-02T10:17:26.543Z,97829.00
2018-10-02T10:19:57.025Z,97832.00
2018-10-02T10:22:27.563Z,97831.00
2018-10-02T10:24:58.056Z,97843.00
2018-10-02T10:27:28.614Z,97845.00
2018-10-02T10:29:58.802Z,97851.00
2018-10-02T10:32:29.225Z,97840.00
2018-10-02T10:34:59.765Z,97846.00
2018-10-02T10:37:30.224Z,97848.00
2018-10-02T10:40:00.771Z,97834.00
2018-10-02T10:42:31.096Z,97827.00
2018-10-02T10:45:01.695Z,97823.00
2018-10-02T10:47:31.987Z,97807.00
2018-10-02T10:50:02.317Z,97828.00
2018-10-02T10:52:32.891Z,97825.00
2018-10-02T10:55:21.989Z,97825.00
2018-10-02T10:57:52.448Z,97821.00
2018-10-02T11:00:22.991Z,97818.00
2018-10-02T11:02:53.349Z,97820.00
2018-10-02T11:05:23.690Z,97813.00
2018-10-02T11:07:54.287Z,97812.00
2018-10-02T11:10:24.787Z,97813.00
2018-10-02T11:12:55.335Z,97812.00
2018-10-02T11:15:27.546Z,97817.00
2018-10-02T11:17:57.900Z,97814.00
2018-10-02T11:20:30.900Z,97811.00
2018-10-02T11:23:01.595Z,97807.00
2018-10-02T11:25:32.205Z,97801.00
2018-10-02T11:28:02.798Z,97798.00
2018-10-02T11:30:33.021Z,97789.00
2018-10-02T11:33:03.471Z,97785.00
2018-10-02T11:35:33.953Z,97792.00
2018-10-02T11:38:04.106Z,97786.00
2018-10-02T11:40:34.422Z,97781.00
2018-10-02T11:43:04.953Z,97775.00
2018-10-02T11:45:35.397Z,97770.00
2018-10-02T11:48:05.782Z,97774.00
2018-10-02T11:50:43.041Z,97776.00
2018-10-02T11:53:13.427Z,97769.00
2018-10-02T11:55:44.066Z,97768.00
2018-10-02T11:58:14.636Z,97765.00
2018-10-02T12:00:45.128Z,97765.00
2018-10-02T12:03:15.584Z,97782.00
2018-10-02T12:05:45.950Z,97779.00
2018-10-02T12:08:16.435Z,97776.00
2018-10-02T12:10:46.809Z,97775.00
2018-10-02T12:13:17.249Z,97761.00
2018-10-02T12:15:47.743Z,97779.00
2018-10-02T12:18:18.223Z,97774.00
2018-10-02T12:20:48.863Z,97769.00
2018-10-02T12:23:19.176Z,97761.00
2018-10-02T12:25:49.536Z,97762.00
2018-10-02T12:28:20.017Z,97759.00
2018-10-02T12:30:50.394Z,97750.00
2018-10-02T12:33:20.804Z,97751.00
2018-10-02T12:35:51.178Z,97749.00
2018-10-02T12:38:21.168Z,97747.00
2018-10-02T12:40:51.767Z,97737.00
2018-10-02T12:43:21.763Z,97743.00
2018-10-02T12:45:51.763Z,97734.00
2018-10-02T12:48:22.076Z,97733.00
2018-10-02T12:50:52.613Z,97733.00
2018-10-02T12:53:29.434Z,97735.00
2018-10-02T12:56:00.000Z,97739.00
2018-10-02T12:58:30.483Z,97744.00
2018-10-02T13:01:00.790Z,97744.00
2018-10-02T13:03:31.623Z,97729.00
2018-10-02T13:06:02.005Z,97736.00
2018-10-02T13:08:32.373Z,97745.00
2018-10-02T13:11:02.907Z,97737.00
2018-10-02T13:13:33.135Z,97735.00
2018-10-02T13:16:03.677Z,97737.00
2018-10-02T13:18:33.967Z,97737.00
2018-10-02T13:21:04.344Z,97731.00
2018-10-02T13:23:34.700Z,97732.00
2018-10-02T13:26:05.040Z,97730.00
2018-10-02T13:28:35.404Z,97736.00
2018-10-02T13:31:05.837Z,97729.00
2018-10-02T13:33:36.324Z,97722.00
2018-10-02T13:36:06.611Z,97726.00
2018-10-02T13:38:37.119Z,96015.00
2018-10-02T13:41:07.502Z,97728.00
2018-10-02T13:43:37.964Z,97725.00
2018-10-02T13:46:08.345Z,97721.00
2018-10-02T13:48:38.695Z,97730.00
2018-10-02T13:51:09.356Z,97740.00
2018-10-02T13:53:39.663Z,97731.00
2018-10-02T13:56:10.136Z,97729.00
2018-10-02T13:58:40.588Z,97735.00
2018-10-02T14:01:11.182Z,97723.00
2018-10-02T14:03:41.699Z,97726.00
2018-10-02T14:06:12.306Z,97721.00
2018-10-02T14:08:42.703Z,97719.00
2018-10-02T14:11:13.116Z,97729.00
2018-10-02T14:13:43.706Z,97729.00
2018-10-02T14:16:14.008Z,97728.00
2018-10-02T14:18:44.418Z,97730.00
2018-10-02T14:21:15.940Z,97726.00
2018-10-02T14:23:46.368Z,97727.00
2018-10-02T14:26:16.844Z,97729.00
2018-10-02T14:28:47.291Z,97727.00
2018-10-02T14:31:17.557Z,97738.00
2018-10-02T14:33:47.945Z,97737.00
2018-10-02T14:36:18.293Z,97734.00
2018-10-02T14:38:48.805Z,97738.00
2018-10-02T14:41:19.030Z,97741.00
2018-10-02T14:43:49.328Z,97732.00
2018-10-02T14:46:19.838Z,97730.00
2018-10-02T14:48:50.223Z,97729.00
2018-10-02T14:51:20.672Z,97733.00
2018-10-02T14:53:51.182Z,97735.00
2018-10-02T14:56:21.785Z,97734.00
2018-10-02T14:58:52.068Z,97745.00
2018-10-02T15:01:22.512Z,97739.00
2018-10-02T15:03:52.843Z,97746.00
2018-10-02T15:06:23.294Z,97748.00
2018-10-02T15:08:53.671Z,97751.00
2018-10-02T15:11:24.202Z,97753.00
2018-10-02T15:13:54.651Z,97753.00
2018-10-02T15:16:25.151Z,97756.00
2018-10-02T15:18:57.128Z,97755.00
2018-10-02T15:21:27.764Z,97753.00
2018-10-02T15:23:58.340Z,97753.00
2018-10-02T15:26:29.820Z,97760.00
2018-10-02T15:29:01.566Z,97753.00
2018-10-02T15:31:32.281Z,97755.00
2018-10-02T15:34:04.193Z,97762.00
2018-10-02T15:36:34.824Z,97759.00
2018-10-02T15:39:06.083Z,97751.00
2018-10-02T15:41:38.169Z,97751.00
2018-10-02T15:44:09.546Z,97747.00
2018-10-02T15:46:39.829Z,97746.00
2018-10-02T15:49:11.528Z,97743.00
2018-10-02T15:51:42.163Z,97743.00
2018-10-02T15:54:12.894Z,97738.00
2018-10-02T15:56:43.522Z,97743.00
2018-10-02T15:59:13.999Z,97742.00
2018-10-02T16:01:44.343Z,97745.00
2018-10-02T16:04:14.658Z,97745.00
2018-10-02T16:06:44.998Z,97746.00
2018-10-02T16:09:15.526Z,97748.00
2018-10-02T16:11:45.950Z,97752.00
2018-10-02T16:14:16.104Z,97763.00
2018-10-02T16:16:46.535Z,97752.00
2018-10-02T16:19:16.843Z,97773.00
2018-10-02T16:21:47.132Z,97768.00
2018-10-02T16:24:17.447Z,97775.00
2018-10-02T16:26:47.866Z,97769.00
2018-10-02T16:29:18.147Z,97771.00
2018-10-02T16:31:48.805Z,97771.00
2018-10-02T16:34:19.419Z,97783.00
2018-10-02T16:36:50.026Z,97790.00
2018-10-02T16:39:20.264Z,97785.00
2018-10-02T16:41:50.669Z,97780.00
2018-10-02T16:44:20.962Z,97782.00
2018-10-02T16:46:51.189Z,97785.00
2018-10-02T16:49:21.636Z,97796.00
2018-10-02T16:51:51.977Z,97797.00
2018-10-02T16:54:22.248Z,97801.00
2018-10-02T16:56:52.596Z,97812.00
2018-10-02T16:59:23.007Z,97817.00
2018-10-02T17:01:53.949Z,97818.00
2018-10-02T17:04:24.500Z,97818.00
2018-10-02T17:06:54.940Z,97821.00
2018-10-02T17:09:25.389Z,97825.00
2018-10-02T17:11:55.922Z,97833.00
2018-10-02T17:14:26.451Z,97840.00
2018-10-02T17:16:56.980Z,97846.00
2018-10-02T17:19:27.326Z,97845.00
2018-10-02T17:22:04.558Z,97846.00
2018-10-02T17:24:34.874Z,97856.00
2018-10-02T17:27:05.211Z,97854.00
2018-10-02T17:29:35.721Z,97857.00
2018-10-02T17:32:05.993Z,97863.00
2018-10-02T17:34:36.253Z,97871.00
2018-10-02T17:37:06.718Z,97869.00
2018-10-02T17:39:36.875Z,97875.00
2018-10-02T17:42:07.395Z,97870.00
2018-10-02T17:44:37.868Z,97872.00
2018-10-02T17:47:08.078Z,97874.00
2018-10-02T17:49:38.439Z,97876.00
2018-10-02T17:52:09.445Z,97882.00
2018-10-02T17:54:39.794Z,97886.00
2018-10-02T17:57:10.172Z,97888.00
2018-10-02T17:59:40.712Z,97899.00
2018-10-02T18:02:11.218Z,97900.00
2018-10-02T18:04:41.421Z,97906.00
2018-10-02T18:07:11.987Z,97903.00
2018-10-02T18:09:42.507Z,97906.00
2018-10-02T18:12:12.896Z,97901.00
2018-10-02T18:14:43.533Z,97904.00
2018-10-02T18:17:14.125Z,97906.00
2018-10-02T18:19:44.499Z,97908.00
2018-10-02T18:22:14.973Z,97911.00
2018-10-02T18:24:45.466Z,97919.00
2018-10-02T18:27:15.922Z,97919.00
2018-10-02T18:29:46.368Z,97917.00
2018-10-02T18:32:16.897Z,97917.00
2018-10-02T18:34:47.340Z,97916.00
2018-10-02T18:37:17.767Z,97918.00
2018-10-02T18:39:48.243Z,97916.00
2018-10-02T18:42:18.758Z,97919.00
2018-10-02T18:44:49.581Z,97922.00
2018-10-02T18:47:20.090Z,97932.00
2018-10-02T18:49:50.817Z,97930.00
2018-10-02T18:52:21.171Z,97936.00
2018-10-02T18:54:51.540Z,97935.00
2018-10-02T18:57:21.771Z,97931.00
2018-10-02T18:59:52.585Z,97925.00
2018-10-02T19:02:23.008Z,97923.00
2018-10-02T19:04:54.967Z,97921.00
2018-10-02T19:07:25.460Z,97922.00
2018-10-02T19:09:56.933Z,97919.00
2018-10-02T19:12:27.597Z,97921.00
2018-10-02T19:14:58.445Z,97916.00
2018-10-02T19:17:30.698Z,97915.00
2018-10-02T19:20:06.756Z,97912.00
2018-10-02T19:22:38.413Z,97907.00
2018-10-02T19:25:13.908Z,97907.00
2018-10-02T19:27:44.654Z,97908.00
2018-10-02T19:30:21.043Z,97912.00
2018-10-02T19:32:51.501Z,97915.00
2018-10-02T19:35:22.106Z,97915.00
2018-10-02T19:37:58.552Z,97915.00
2018-10-02T19:40:29.291Z,97919.00
2018-10-02T19:43:00.255Z,97916.00
2018-10-02T19:45:36.039Z,97918.00
2018-10-02T19:48:11.386Z,97919.00
2018-10-02T19:50:41.838Z,97916.00
2018-10-02T19:53:12.198Z,97917.00
2018-10-02T19:55:42.622Z,97924.00
2018-10-02T19:58:13.044Z,97915.00
2018-10-02T20:00:43.654Z,97919.00
2018-10-02T20:03:13.948Z,97915.00
2018-10-02T20:05:44.337Z,97917.00
2018-10-02T20:08:14.903Z,97919.00
2018-10-02T20:10:45.269Z,97917.00
2018-10-02T20:13:15.836Z,97920.00
2018-10-02T20:15:46.161Z,97927.00
2018-10-02T20:18:16.506Z,97937.00
2018-10-02T20:20:46.980Z,97932.00
2018-10-02T20:23:17.524Z,97930.00
2018-10-02T20:25:47.912Z,97929.00
2018-10-02T20:28:18.267Z,97933.00
2018-10-02T20:30:48.609Z,97940.00
2018-10-02T20:33:19.108Z,97936.00
2018-10-02T20:35:49.523Z,97941.00
2018-10-02T20:38:19.970Z,97937.00
2018-10-02T20:40:50.943Z,97939.00
2018-10-02T20:43:21.357Z,97938.00
2018-10-02T20:45:51.785Z,97941.00
2018-10-02T20:48:22.188Z,97943.00
2018-10-02T20:50:52.577Z,97946.00
2018-10-02T20:53:23.048Z,97945.00
2018-10-02T20:55:53.502Z,97955.00
2018-10-02T20:58:23.976Z,97953.00
2018-10-02T21:00:54.543Z,97951.00
2018-10-02T21:03:25.016Z,97953.00
2018-10-02T21:05:55.453Z,97945.00
2018-10-02T21:08:25.941Z,97947.00
2018-10-02T21:10:56.419Z,97941.00
2018-10-02T21:13:26.708Z,97943.00
2018-10-02T21:15:56.886Z,97943.00
2018-10-02T21:18:27.741Z,97946.00
2018-10-02T21:20:58.237Z,97941.00
2018-10-02T21:23:28.781Z,97937.00
2018-10-02T21:25:59.046Z,97930.00
2018-10-02T21:28:29.356Z,97929.00
2018-10-02T21:30:59.818Z,97933.00
2018-10-02T21:33:30.255Z,97931.00
2018-10-02T21:36:00.686Z,97933.00
2018-10-02T21:38:31.394Z,97926.00
2018-10-02T21:41:01.699Z,97929.00
2018-10-02T21:43:32.183Z,97934.00
2018-10-02T21:46:02.625Z,97931.00
2018-10-02T21:48:33.047Z,97934.00
2018-10-02T21:51:03.413Z,97930.00
2018-10-02T21:53:33.909Z,97919.00
2018-10-02T21:56:04.334Z,97918.00
2018-10-02T21:58:35.010Z,97912.00
2018-10-02T22:01:06.175Z,97907.00
2018-10-02T22:03:38.491Z,97911.00
2018-10-02T22:06:09.342Z,97907.00
2018-10-02T22:08:40.058Z,97899.00
2018-10-02T22:11:10.489Z,97903.00
2018-10-02T22:13:43.747Z,97907.00
2018-10-02T22:16:14.099Z,97896.00
2018-10-02T22:18:44.433Z,97895.00
2018-10-02T22:21:14.950Z,97894.00
2018-10-02T22:23:45.415Z,97894.00
2018-10-02T22:26:15.637Z,97898.00
2018-10-02T22:28:46.413Z,97891.00
2018-10-02T22:31:16.763Z,97899.00
2018-10-02T22:33:47.193Z,97897.00
2018-10-02T22:36:17.921Z,97903.00
2018-10-02T22:38:48.413Z,97900.00
2018-10-02T22:41:18.779Z,97905.00
2018-10-02T22:43:49.411Z,97905.00
2018-10-02T22:46:19.616Z,97903.00
2018-10-02T22:48:50.062Z,97905.00
2018-10-02T22:51:20.309Z,97904.00
2018-10-02T22:53:50.663Z,97906.00
2018-10-02T22:56:21.133Z,97906.00
2018-10-02T22:58:51.770Z,97906.00
2018-10-02T23:01:21.993Z,97899.00
2018-10-02T23:03:52.460Z,97891.00
2018-10-02T23:06:23.093Z,97895.00
2018-10-02T23:08:53.478Z,97890.00
2018-10-02T23:11:24.088Z,97895.00
2018-10-02T23:13:54.412Z,97893.00
2018-10-02T23:16:25.293Z,97886.00
2018-10-02T23:18:55.576Z,97880.00
2018-10-02T23:21:25.879Z,97891.00
2018-10-02T23:23:56.143Z,97903.00
2018-10-02T23:26:26.676Z,97900.00
2018-10-02T23:28:57.131Z,97908.00
2018-10-02T23:31:27.564Z,97913.00
2018-10-02T23:33:57.961Z,97912.00
2018-10-02T23:36:28.356Z,97904.00
2018-10-02T23:38:59.068Z,97901.00
2018-10-02T23:41:29.490Z,97896.00
2018-10-02T23:44:00.183Z,97905.00
2018-10-02T23:46:30.670Z,97899.00
2018-10-02T23:49:01.019Z,97911.00
2018-10-02T23:51:31.308Z,97903.00
2018-10-02T23:54:01.788Z,97910.00
2018-10-02T23:56:32.271Z,97914.00
2018-10-02T23:59:02.720Z,97909.00
